GLO2142 SBSV-SBJP
Flight info
| Callsign | GLO2142 |
|---|---|
| Flight time | 1h 10m |
| Altitude | 35000 |
| Route | ARURU DCT GERSO UZ14 MEXAR DCT REC DCT |
| Aircraft | B738/M-SDFGIKLORWXY/LB1 |
Departure
| Time | 2026-04-19 21:28 |
|---|---|
| Airport | Deputado Luiz Eduardo Magalhães International Airport (SBSV) |
Arrival
| Time | 2026-04-19 22:39 |
|---|---|
| Airport | Presidente Castro Pinto International Airport (SBJP) |
| Time | Latitude | Longitude | Altitude | Speed | Heading |
|---|---|---|---|---|---|
| 2026-04-19 21:03 | -12.91478 | -38.33289 | 41 ft | 0 kts | 351° |
| 2026-04-19 21:21 | -12.91490 | -38.33288 | 40 ft | 4 kts | 351° |
| 2026-04-19 21:22 | -12.91512 | -38.33285 | 42 ft | 4 kts | 8° |
| 2026-04-19 21:22 | -12.91534 | -38.33295 | 42 ft | 4 kts | 54° |
| 2026-04-19 21:22 | -12.91542 | -38.33310 | 38 ft | 0 kts | 78° |
| 2026-04-19 21:24 | -12.91539 | -38.33296 | 41 ft | 6 kts | 78° |
| 2026-04-19 21:25 | -12.91525 | -38.33221 | 43 ft | 14 kts | 78° |
| 2026-04-19 21:25 | -12.91473 | -38.33148 | 43 ft | 13 kts | 23° |
| 2026-04-19 21:25 | -12.91384 | -38.33149 | 40 ft | 13 kts | 348° |
| 2026-04-19 21:25 | -12.91298 | -38.33167 | 41 ft | 13 kts | 348° |
| 2026-04-19 21:26 | -12.91224 | -38.33189 | 41 ft | 10 kts | 322° |
| 2026-04-19 21:26 | -12.91217 | -38.33254 | 40 ft | 10 kts | 259° |
| 2026-04-19 21:26 | -12.91218 | -38.33321 | 43 ft | 9 kts | 283° |
| 2026-04-19 21:26 | -12.91194 | -38.33381 | 42 ft | 9 kts | 296° |
| 2026-04-19 21:27 | -12.91161 | -38.33434 | 42 ft | 9 kts | 311° |
| 2026-04-19 21:27 | -12.91115 | -38.33472 | 42 ft | 8 kts | 349° |
| 2026-04-19 21:27 | -12.91099 | -38.33454 | 42 ft | 3 kts | 70° |
| 2026-04-19 21:27 | -12.91089 | -38.33408 | 42 ft | 20 kts | 78° |
| 2026-04-19 21:28 | -12.91010 | -38.33018 | 45 ft | 90 kts | 78° |
| 2026-04-19 21:28 | -12.90840 | -38.32175 | 46 ft | 149 kts | 78° |
| 2026-04-19 21:28 | -12.90609 | -38.31002 | 335 ft | 175 kts | 79° |
| 2026-04-19 21:28 | -12.90382 | -38.29783 | 1060 ft | 178 kts | 78° |
| 2026-04-19 21:29 | -12.90125 | -38.28498 | 1516 ft | 198 kts | 76° |
| 2026-04-19 21:29 | -12.89762 | -38.27056 | 1906 ft | 216 kts | 74° |
| 2026-04-19 21:29 | -12.89177 | -38.25638 | 2431 ft | 219 kts | 47° |
| 2026-04-19 21:29 | -12.87870 | -38.24916 | 3011 ft | 218 kts | 4° |
| 2026-04-19 21:30 | -12.86373 | -38.25053 | 3626 ft | 217 kts | 347° |
| 2026-04-19 21:30 | -12.84849 | -38.25412 | 4158 ft | 230 kts | 345° |
| 2026-04-19 21:30 | -12.83227 | -38.25820 | 4392 ft | 255 kts | 345° |
| 2026-04-19 21:30 | -12.81465 | -38.26260 | 4980 ft | 265 kts | 345° |
| 2026-04-19 21:31 | -12.79654 | -38.26701 | 5675 ft | 269 kts | 346° |
| 2026-04-19 21:31 | -12.77825 | -38.27138 | 6081 ft | 271 kts | 346° |
| 2026-04-19 21:31 | -12.75974 | -38.27575 | 6766 ft | 275 kts | 346° |
| 2026-04-19 21:31 | -12.74107 | -38.28014 | 7569 ft | 276 kts | 346° |
| 2026-04-19 21:32 | -12.72210 | -38.28361 | 8278 ft | 280 kts | 359° |
| 2026-04-19 21:32 | -12.70326 | -38.27870 | 8969 ft | 285 kts | 28° |
| 2026-04-19 21:32 | -12.68667 | -38.26736 | 9688 ft | 288 kts | 36° |
| 2026-04-19 21:32 | -12.67053 | -38.25489 | 10303 ft | 295 kts | 37° |
| 2026-04-19 21:33 | -12.65363 | -38.24155 | 10495 ft | 318 kts | 37° |
| 2026-04-19 21:33 | -12.63573 | -38.22741 | 10915 ft | 330 kts | 37° |
| 2026-04-19 21:33 | -12.61742 | -38.21300 | 11563 ft | 334 kts | 37° |
| 2026-04-19 21:33 | -12.59891 | -38.19851 | 12282 ft | 336 kts | 37° |
| 2026-04-19 21:34 | -12.58024 | -38.18397 | 12983 ft | 339 kts | 37° |
| 2026-04-19 21:34 | -12.56132 | -38.16927 | 13667 ft | 343 kts | 36° |
| 2026-04-19 21:34 | -12.54220 | -38.15445 | 14348 ft | 347 kts | 36° |
| 2026-04-19 21:34 | -12.52286 | -38.13948 | 15063 ft | 350 kts | 36° |
| 2026-04-19 21:35 | -12.50337 | -38.12442 | 15734 ft | 354 kts | 36° |
| 2026-04-19 21:35 | -12.48363 | -38.10917 | 16402 ft | 357 kts | 36° |
| 2026-04-19 21:35 | -12.46372 | -38.09380 | 17057 ft | 361 kts | 36° |
| 2026-04-19 21:35 | -12.44359 | -38.07825 | 17696 ft | 364 kts | 36° |
| 2026-04-19 21:36 | -12.42355 | -38.06279 | 18311 ft | 368 kts | 36° |
| 2026-04-19 21:36 | -12.40304 | -38.04696 | 18915 ft | 371 kts | 36° |
| 2026-04-19 21:36 | -12.38236 | -38.03101 | 19521 ft | 374 kts | 36° |
| 2026-04-19 21:36 | -12.36148 | -38.01490 | 20092 ft | 378 kts | 36° |
| 2026-04-19 21:37 | -12.34037 | -37.99863 | 20664 ft | 381 kts | 36° |
| 2026-04-19 21:37 | -12.31916 | -37.98227 | 21210 ft | 384 kts | 36° |
| 2026-04-19 21:37 | -12.29771 | -37.96574 | 21749 ft | 387 kts | 36° |
| 2026-04-19 21:37 | -12.27612 | -37.94910 | 22268 ft | 390 kts | 36° |
| 2026-04-19 21:38 | -12.25436 | -37.93233 | 22770 ft | 394 kts | 36° |
| 2026-04-19 21:38 | -12.23235 | -37.91538 | 23257 ft | 397 kts | 36° |
| 2026-04-19 21:38 | -12.21026 | -37.89837 | 23753 ft | 399 kts | 36° |
| 2026-04-19 21:38 | -12.18799 | -37.88121 | 24211 ft | 402 kts | 36° |
| 2026-04-19 21:39 | -12.16555 | -37.86394 | 24668 ft | 405 kts | 36° |
| 2026-04-19 21:39 | -12.14293 | -37.84653 | 25108 ft | 408 kts | 36° |
| 2026-04-19 21:39 | -12.12017 | -37.82902 | 25536 ft | 411 kts | 36° |
| 2026-04-19 21:39 | -12.09727 | -37.81140 | 25953 ft | 414 kts | 36° |
| 2026-04-19 21:40 | -12.05098 | -37.77579 | 26768 ft | 419 kts | 36° |
| 2026-04-19 21:40 | -12.02768 | -37.75787 | 27154 ft | 421 kts | 36° |
| 2026-04-19 21:40 | -12.00422 | -37.73983 | 27517 ft | 424 kts | 36° |
| 2026-04-19 21:41 | -11.98089 | -37.72190 | 27873 ft | 426 kts | 36° |
| 2026-04-19 21:41 | -11.95713 | -37.70364 | 28231 ft | 429 kts | 36° |
| 2026-04-19 21:41 | -11.93334 | -37.68507 | 28580 ft | 431 kts | 39° |
| 2026-04-19 21:41 | -11.91062 | -37.66506 | 28908 ft | 433 kts | 41° |
| 2026-04-19 21:42 | -11.88844 | -37.64406 | 29231 ft | 436 kts | 43° |
| 2026-04-19 21:42 | -11.86641 | -37.62270 | 29545 ft | 438 kts | 43° |
| 2026-04-19 21:42 | -11.84429 | -37.60124 | 29862 ft | 440 kts | 43° |
| 2026-04-19 21:42 | -11.82198 | -37.57977 | 30154 ft | 442 kts | 43° |
| 2026-04-19 21:43 | -11.79946 | -37.55831 | 30445 ft | 444 kts | 42° |
| 2026-04-19 21:43 | -11.77678 | -37.53685 | 30720 ft | 446 kts | 42° |
| 2026-04-19 21:43 | -11.75398 | -37.51538 | 30989 ft | 448 kts | 42° |
| 2026-04-19 21:43 | -11.73097 | -37.49378 | 31253 ft | 449 kts | 42° |
| 2026-04-19 21:44 | -11.70790 | -37.47214 | 31507 ft | 451 kts | 42° |
| 2026-04-19 21:44 | -11.68477 | -37.45046 | 31752 ft | 453 kts | 42° |
| 2026-04-19 21:44 | -11.66154 | -37.42869 | 31983 ft | 455 kts | 42° |
| 2026-04-19 21:44 | -11.63820 | -37.40681 | 32223 ft | 456 kts | 42° |
| 2026-04-19 21:45 | -11.61475 | -37.38484 | 32448 ft | 458 kts | 42° |
| 2026-04-19 21:45 | -11.59131 | -37.36286 | 32690 ft | 459 kts | 42° |
| 2026-04-19 21:45 | -11.56810 | -37.34112 | 33017 ft | 457 kts | 42° |
| 2026-04-19 21:45 | -11.54474 | -37.31923 | 33355 ft | 456 kts | 42° |
| 2026-04-19 21:46 | -11.52142 | -37.29739 | 33649 ft | 455 kts | 42° |
| 2026-04-19 21:46 | -11.49809 | -37.27555 | 33906 ft | 455 kts | 42° |
| 2026-04-19 21:46 | -11.47477 | -37.25372 | 34170 ft | 455 kts | 42° |
| 2026-04-19 21:46 | -11.45146 | -37.23191 | 34453 ft | 454 kts | 42° |
| 2026-04-19 21:47 | -11.42822 | -37.21016 | 34728 ft | 453 kts | 42° |
| 2026-04-19 21:47 | -11.40504 | -37.18847 | 34969 ft | 453 kts | 42° |
| 2026-04-19 21:47 | -11.38175 | -37.16669 | 34981 ft | 455 kts | 42° |
| 2026-04-19 21:48 | -11.33543 | -37.12339 | 34983 ft | 448 kts | 42° |
| 2026-04-19 21:48 | -11.28984 | -37.08078 | 35005 ft | 444 kts | 42° |
| 2026-04-19 21:49 | -11.24430 | -37.03824 | 35009 ft | 444 kts | 42° |
| 2026-04-19 21:49 | -11.19884 | -36.99581 | 35002 ft | 443 kts | 42° |
| 2026-04-19 21:50 | -11.16103 | -36.96052 | 35001 ft | 444 kts | 42° |
| 2026-04-19 21:50 | -11.11554 | -36.91808 | 34999 ft | 444 kts | 42° |
| 2026-04-19 21:51 | -11.06994 | -36.87556 | 35002 ft | 445 kts | 42° |
| 2026-04-19 21:51 | -11.02425 | -36.83297 | 35001 ft | 446 kts | 42° |
| 2026-04-19 21:52 | -10.97852 | -36.79036 | 34996 ft | 446 kts | 42° |
| 2026-04-19 21:52 | -10.93267 | -36.74766 | 35009 ft | 447 kts | 42° |
| 2026-04-19 21:53 | -10.88675 | -36.70490 | 35006 ft | 448 kts | 42° |
| 2026-04-19 21:53 | -10.84082 | -36.66216 | 35006 ft | 448 kts | 42° |
| 2026-04-19 21:54 | -10.79218 | -36.62334 | 35008 ft | 447 kts | 34° |
| 2026-04-19 21:54 | -10.74084 | -36.58761 | 35004 ft | 447 kts | 33° |
| 2026-04-19 21:55 | -10.68945 | -36.55191 | 35008 ft | 447 kts | 34° |
| 2026-04-19 21:55 | -10.63833 | -36.51586 | 35004 ft | 447 kts | 34° |
| 2026-04-19 21:56 | -10.58740 | -36.47967 | 35003 ft | 447 kts | 34° |
| 2026-04-19 21:56 | -10.53653 | -36.44346 | 35002 ft | 446 kts | 34° |
| 2026-04-19 21:57 | -10.48568 | -36.40730 | 34996 ft | 446 kts | 34° |
| 2026-04-19 21:57 | -10.43482 | -36.37115 | 35004 ft | 446 kts | 34° |
| 2026-04-19 21:58 | -10.38400 | -36.33505 | 35004 ft | 445 kts | 34° |
| 2026-04-19 21:58 | -10.33324 | -36.29901 | 35005 ft | 445 kts | 34° |
| 2026-04-19 21:59 | -10.28249 | -36.26298 | 35005 ft | 445 kts | 34° |
| 2026-04-19 21:59 | -10.23169 | -36.22695 | 35003 ft | 445 kts | 34° |
| 2026-04-19 22:00 | -10.18093 | -36.19095 | 35004 ft | 445 kts | 34° |
| 2026-04-19 22:00 | -10.13056 | -36.15524 | 35004 ft | 445 kts | 34° |
| 2026-04-19 22:01 | -10.07980 | -36.11927 | 35002 ft | 445 kts | 34° |
| 2026-04-19 22:01 | -10.02899 | -36.08328 | 35003 ft | 445 kts | 34° |
| 2026-04-19 22:02 | -9.97819 | -36.04730 | 35004 ft | 445 kts | 34° |
| 2026-04-19 22:02 | -9.92735 | -36.01132 | 34999 ft | 446 kts | 34° |
| 2026-04-19 22:03 | -9.87653 | -35.97536 | 35009 ft | 446 kts | 34° |
| 2026-04-19 22:03 | -9.82564 | -35.93937 | 35006 ft | 446 kts | 34° |
| 2026-04-19 22:04 | -9.77476 | -35.90340 | 35004 ft | 446 kts | 34° |
| 2026-04-19 22:04 | -9.72384 | -35.86741 | 34998 ft | 446 kts | 34° |
| 2026-04-19 22:05 | -9.67326 | -35.83168 | 34997 ft | 446 kts | 34° |
| 2026-04-19 22:05 | -9.62236 | -35.79573 | 35002 ft | 446 kts | 34° |
| 2026-04-19 22:06 | -9.57141 | -35.75977 | 34999 ft | 446 kts | 34° |
| 2026-04-19 22:06 | -9.52053 | -35.72386 | 35004 ft | 446 kts | 34° |
| 2026-04-19 22:07 | -9.46958 | -35.68791 | 34995 ft | 446 kts | 34° |
| 2026-04-19 22:07 | -9.41869 | -35.65203 | 35001 ft | 446 kts | 34° |
| 2026-04-19 22:08 | -9.36778 | -35.61613 | 35002 ft | 446 kts | 34° |
| 2026-04-19 22:08 | -9.31687 | -35.58026 | 35005 ft | 446 kts | 34° |
| 2026-04-19 22:09 | -9.26601 | -35.54442 | 35008 ft | 446 kts | 34° |
| 2026-04-19 22:09 | -9.21511 | -35.50858 | 34999 ft | 446 kts | 34° |
| 2026-04-19 22:10 | -9.16429 | -35.47277 | 34999 ft | 445 kts | 34° |
| 2026-04-19 22:10 | -9.11377 | -35.43716 | 34995 ft | 445 kts | 34° |
| 2026-04-19 22:11 | -9.06296 | -35.40134 | 35006 ft | 445 kts | 34° |
| 2026-04-19 22:11 | -9.01214 | -35.36555 | 35004 ft | 445 kts | 34° |
| 2026-04-19 22:12 | -8.96146 | -35.32984 | 34973 ft | 446 kts | 34° |
| 2026-04-19 22:12 | -8.93580 | -35.31178 | 34472 ft | 451 kts | 34° |
| 2026-04-19 22:12 | -8.91011 | -35.29369 | 33869 ft | 450 kts | 34° |
| 2026-04-19 22:12 | -8.88423 | -35.27590 | 33275 ft | 449 kts | 31° |
| 2026-04-19 22:13 | -8.85664 | -35.26110 | 32605 ft | 450 kts | 25° |
| 2026-04-19 22:13 | -8.82823 | -35.24792 | 32086 ft | 447 kts | 24° |
| 2026-04-19 22:13 | -8.79997 | -35.23518 | 31609 ft | 443 kts | 23° |
| 2026-04-19 22:13 | -8.77188 | -35.22253 | 31131 ft | 440 kts | 23° |
| 2026-04-19 22:14 | -8.74407 | -35.20988 | 30664 ft | 437 kts | 24° |
| 2026-04-19 22:14 | -8.71652 | -35.19721 | 30196 ft | 433 kts | 24° |
| 2026-04-19 22:14 | -8.68920 | -35.18454 | 29730 ft | 430 kts | 24° |
| 2026-04-19 22:14 | -8.66214 | -35.17193 | 29268 ft | 427 kts | 24° |
| 2026-04-19 22:15 | -8.63562 | -35.15955 | 28784 ft | 423 kts | 24° |
| 2026-04-19 22:15 | -8.60898 | -35.14710 | 28322 ft | 420 kts | 24° |
| 2026-04-19 22:15 | -8.58257 | -35.13476 | 27851 ft | 417 kts | 24° |
| 2026-04-19 22:15 | -8.55636 | -35.12252 | 27385 ft | 414 kts | 24° |
| 2026-04-19 22:16 | -8.53027 | -35.11034 | 26914 ft | 411 kts | 24° |
| 2026-04-19 22:16 | -8.50443 | -35.09828 | 26451 ft | 408 kts | 24° |
| 2026-04-19 22:16 | -8.47876 | -35.08630 | 25987 ft | 405 kts | 24° |
| 2026-04-19 22:16 | -8.45325 | -35.07441 | 25526 ft | 402 kts | 24° |
| 2026-04-19 22:17 | -8.42793 | -35.06260 | 25067 ft | 399 kts | 24° |
| 2026-04-19 22:17 | -8.40280 | -35.05088 | 24611 ft | 397 kts | 24° |
| 2026-04-19 22:17 | -8.37783 | -35.03923 | 24157 ft | 394 kts | 24° |
| 2026-04-19 22:17 | -8.35300 | -35.02766 | 23709 ft | 391 kts | 24° |
| 2026-04-19 22:18 | -8.32840 | -35.01619 | 23255 ft | 389 kts | 24° |
| 2026-04-19 22:18 | -8.30389 | -35.00476 | 22806 ft | 386 kts | 24° |
| 2026-04-19 22:18 | -8.27959 | -34.99344 | 22361 ft | 384 kts | 24° |
| 2026-04-19 22:18 | -8.25540 | -34.98217 | 21917 ft | 381 kts | 24° |
| 2026-04-19 22:19 | -8.23137 | -34.97097 | 21473 ft | 379 kts | 24° |
| 2026-04-19 22:19 | -8.20784 | -34.96000 | 21043 ft | 376 kts | 24° |
| 2026-04-19 22:19 | -8.18418 | -34.94898 | 20614 ft | 374 kts | 24° |
| 2026-04-19 22:19 | -8.16056 | -34.93829 | 20190 ft | 371 kts | 20° |
| 2026-04-19 22:20 | -8.13562 | -34.93227 | 19757 ft | 367 kts | 5° |
| 2026-04-19 22:20 | -8.11029 | -34.93236 | 19328 ft | 363 kts | 352° |
| 2026-04-19 22:20 | -8.08559 | -34.93697 | 18928 ft | 360 kts | 347° |
| 2026-04-19 22:20 | -8.06119 | -34.94224 | 18507 ft | 358 kts | 347° |
| 2026-04-19 22:21 | -8.03697 | -34.94761 | 18095 ft | 355 kts | 347° |
| 2026-04-19 22:21 | -8.01289 | -34.95292 | 17689 ft | 353 kts | 347° |
| 2026-04-19 22:21 | -7.98902 | -34.95814 | 17285 ft | 350 kts | 347° |
| 2026-04-19 22:21 | -7.96526 | -34.96328 | 16890 ft | 348 kts | 347° |
| 2026-04-19 22:22 | -7.94167 | -34.96834 | 16490 ft | 346 kts | 347° |
| 2026-04-19 22:22 | -7.91817 | -34.97336 | 16100 ft | 343 kts | 347° |
| 2026-04-19 22:22 | -7.89491 | -34.97831 | 15704 ft | 341 kts | 347° |
| 2026-04-19 22:22 | -7.87174 | -34.98323 | 15316 ft | 339 kts | 347° |
| 2026-04-19 22:23 | -7.84873 | -34.98811 | 14918 ft | 337 kts | 347° |
| 2026-04-19 22:23 | -7.82583 | -34.99297 | 14531 ft | 335 kts | 347° |
| 2026-04-19 22:23 | -7.80308 | -34.99779 | 14140 ft | 333 kts | 347° |
| 2026-04-19 22:23 | -7.78050 | -35.00258 | 13759 ft | 331 kts | 347° |
| 2026-04-19 22:24 | -7.75804 | -35.00734 | 13375 ft | 329 kts | 347° |
| 2026-04-19 22:24 | -7.73571 | -35.01207 | 12991 ft | 327 kts | 347° |
| 2026-04-19 22:24 | -7.71347 | -35.01678 | 12618 ft | 325 kts | 347° |
| 2026-04-19 22:24 | -7.69140 | -35.02145 | 12238 ft | 323 kts | 347° |
| 2026-04-19 22:25 | -7.66976 | -35.02604 | 11873 ft | 321 kts | 347° |
| 2026-04-19 22:25 | -7.64797 | -35.03065 | 11500 ft | 319 kts | 347° |
| 2026-04-19 22:25 | -7.62632 | -35.03524 | 11129 ft | 317 kts | 347° |
| 2026-04-19 22:25 | -7.60478 | -35.03980 | 10761 ft | 316 kts | 347° |
| 2026-04-19 22:26 | -7.58345 | -35.04431 | 10550 ft | 308 kts | 347° |
| 2026-04-19 22:26 | -7.56273 | -35.04869 | 10408 ft | 299 kts | 347° |
| 2026-04-19 22:26 | -7.54269 | -35.05293 | 10281 ft | 290 kts | 347° |
| 2026-04-19 22:26 | -7.52323 | -35.05705 | 10164 ft | 282 kts | 347° |
| 2026-04-19 22:27 | -7.50433 | -35.06104 | 10042 ft | 273 kts | 347° |
| 2026-04-19 22:27 | -7.48593 | -35.06494 | 9848 ft | 269 kts | 347° |
| 2026-04-19 22:27 | -7.46768 | -35.06880 | 9586 ft | 267 kts | 347° |
| 2026-04-19 22:27 | -7.44955 | -35.07264 | 9334 ft | 265 kts | 347° |
| 2026-04-19 22:28 | -7.43155 | -35.07645 | 9072 ft | 263 kts | 347° |
| 2026-04-19 22:28 | -7.41368 | -35.08023 | 8808 ft | 262 kts | 347° |
| 2026-04-19 22:28 | -7.39591 | -35.08399 | 8549 ft | 260 kts | 347° |
| 2026-04-19 22:28 | -7.37822 | -35.08774 | 8295 ft | 259 kts | 347° |
| 2026-04-19 22:29 | -7.36065 | -35.09145 | 8035 ft | 257 kts | 347° |
| 2026-04-19 22:29 | -7.34322 | -35.09513 | 7771 ft | 256 kts | 347° |
| 2026-04-19 22:29 | -7.32583 | -35.09881 | 7527 ft | 254 kts | 347° |
| 2026-04-19 22:29 | -7.30855 | -35.10246 | 7280 ft | 253 kts | 347° |
| 2026-04-19 22:30 | -7.29139 | -35.10610 | 7021 ft | 251 kts | 347° |
| 2026-04-19 22:30 | -7.27433 | -35.10970 | 6765 ft | 250 kts | 347° |
| 2026-04-19 22:30 | -7.25734 | -35.11330 | 6504 ft | 249 kts | 347° |
| 2026-04-19 22:30 | -7.24042 | -35.11687 | 6285 ft | 247 kts | 347° |
| 2026-04-19 22:31 | -7.22387 | -35.12037 | 6163 ft | 240 kts | 347° |
| 2026-04-19 22:31 | -7.20778 | -35.12377 | 6043 ft | 233 kts | 347° |
| 2026-04-19 22:31 | -7.19215 | -35.12707 | 5932 ft | 225 kts | 347° |
| 2026-04-19 22:31 | -7.17711 | -35.13025 | 5842 ft | 224 kts | 347° |
| 2026-04-19 22:32 | -7.16183 | -35.13349 | 5757 ft | 226 kts | 347° |
| 2026-04-19 22:32 | -7.14641 | -35.13674 | 5541 ft | 224 kts | 347° |
| 2026-04-19 22:32 | -7.13133 | -35.13993 | 5296 ft | 218 kts | 347° |
| 2026-04-19 22:32 | -7.11667 | -35.14302 | 5046 ft | 213 kts | 347° |
| 2026-04-19 22:33 | -7.10230 | -35.14594 | 4816 ft | 208 kts | 352° |
| 2026-04-19 22:33 | -7.08843 | -35.14346 | 4558 ft | 205 kts | 33° |
| 2026-04-19 22:33 | -7.07814 | -35.13380 | 4368 ft | 202 kts | 44° |
| 2026-04-19 22:33 | -7.06823 | -35.12378 | 4206 ft | 203 kts | 44° |
| 2026-04-19 22:34 | -7.05816 | -35.11364 | 4002 ft | 206 kts | 44° |
| 2026-04-19 22:34 | -7.04815 | -35.10354 | 3797 ft | 201 kts | 44° |
| 2026-04-19 22:34 | -7.03858 | -35.09391 | 3593 ft | 195 kts | 44° |
| 2026-04-19 22:34 | -7.03066 | -35.08315 | 3344 ft | 191 kts | 73° |
| 2026-04-19 22:35 | -7.03117 | -35.07041 | 3165 ft | 182 kts | 114° |
| 2026-04-19 22:35 | -7.03837 | -35.05997 | 3006 ft | 183 kts | 137° |
| 2026-04-19 22:35 | -7.04746 | -35.05106 | 2811 ft | 180 kts | 136° |
| 2026-04-19 22:35 | -7.05611 | -35.04248 | 2620 ft | 171 kts | 136° |
| 2026-04-19 22:36 | -7.06452 | -35.03412 | 2376 ft | 169 kts | 137° |
| 2026-04-19 22:36 | -7.07285 | -35.02587 | 2157 ft | 167 kts | 137° |
| 2026-04-19 22:36 | -7.08099 | -35.01778 | 1985 ft | 160 kts | 136° |
| 2026-04-19 22:36 | -7.08885 | -35.00999 | 1748 ft | 158 kts | 136° |
| 2026-04-19 22:37 | -7.09667 | -35.00222 | 1536 ft | 158 kts | 136° |
| 2026-04-19 22:37 | -7.10448 | -34.99447 | 1337 ft | 157 kts | 137° |
| 2026-04-19 22:37 | -7.11211 | -34.98687 | 1109 ft | 156 kts | 137° |
| 2026-04-19 22:37 | -7.11989 | -34.97913 | 910 ft | 154 kts | 136° |
| 2026-04-19 22:38 | -7.12753 | -34.97166 | 643 ft | 155 kts | 137° |
| 2026-04-19 22:38 | -7.13518 | -34.96407 | 409 ft | 155 kts | 137° |
| 2026-04-19 22:38 | -7.14270 | -34.95652 | 234 ft | 148 kts | 135° |
| 2026-04-19 22:38 | -7.14933 | -34.94988 | 222 ft | 114 kts | 135° |
| 2026-04-19 22:39 | -7.15391 | -34.94535 | 219 ft | 71 kts | 135° |
| 2026-04-19 22:39 | -7.15614 | -34.94325 | 221 ft | 21 kts | 155° |
| 2026-04-19 22:39 | -7.15668 | -34.94301 | 222 ft | 3 kts | 122° |
| 2026-04-19 22:39 | -7.15660 | -34.94285 | 221 ft | 3 kts | 27° |
| 2026-04-19 22:40 | -7.15629 | -34.94299 | 222 ft | 7 kts | 317° |
| 2026-04-19 22:40 | -7.15586 | -34.94342 | 221 ft | 10 kts | 315° |
| 2026-04-19 22:40 | -7.15528 | -34.94399 | 221 ft | 13 kts | 315° |
| 2026-04-19 22:40 | -7.15455 | -34.94473 | 220 ft | 16 kts | 315° |
| 2026-04-19 22:41 | -7.15376 | -34.94551 | 220 ft | 16 kts | 315° |
| 2026-04-19 22:41 | -7.15299 | -34.94626 | 220 ft | 15 kts | 316° |
| 2026-04-19 22:41 | -7.15225 | -34.94700 | 221 ft | 16 kts | 315° |
| 2026-04-19 22:41 | -7.15130 | -34.94795 | 221 ft | 22 kts | 315° |
| 2026-04-19 22:42 | -7.15010 | -34.94913 | 222 ft | 25 kts | 315° |
| 2026-04-19 22:42 | -7.14889 | -34.95034 | 222 ft | 23 kts | 316° |
| 2026-04-19 22:42 | -7.14773 | -34.95050 | 222 ft | 11 kts | 45° |
| 2026-04-19 22:42 | -7.14716 | -34.94999 | 221 ft | 11 kts | 20° |
| 2026-04-19 22:43 | -7.14653 | -34.95033 | 220 ft | 11 kts | 317° |
| 2026-04-19 22:43 | -7.14615 | -34.95050 | 220 ft | 0 kts | 354° |
| 2026-04-19 22:43 | -7.14607 | -34.95049 | 220 ft | 3 kts | 9° |
| 2026-04-19 22:44 | -7.14594 | -34.95035 | 222 ft | 2 kts | 78° |
| 2026-04-19 22:44 | -7.14597 | -34.95021 | 220 ft | 4 kts | 110° |
| 2026-04-19 22:44 | -7.14606 | -34.95000 | 221 ft | 1 kts | 113° |
| 2026-04-19 22:44 | -7.14608 | -34.94995 | 220 ft | 0 kts | 114° |